Time;durP1;ratioP1;P1;durP2;ratioP2;P2;SDS_P1;SDS_P2;PMS_P1;PMS_P2;Temp;Humidity;BMP_temperature;BMP_pressure;BME280_temperature;BME280_humidity;BME280_pressure;Samples;Min_cycle;Max_cycle;Signal;HPM_P1;HPM_P2
2022/01/18 00:01:45;;;;;;;;;18.25;16.00;;;;;7.74;75.17;103086.56;5074268;28;45983;-78
2022/01/18 00:04:12;;;;;;;;;26.25;21.50;;;;;7.74;74.75;103106.59;5072601;28;47446;-76
2022/01/18 00:06:40;;;;;;;;;25.75;18.75;;;;;7.73;75.02;103113.53;5073350;28;47307;-77
2022/01/18 00:20:50;;;;;;;;;22.75;17.25;;;;;7.58;75.00;103078.19;5011410;28;45703;-77
2022/01/18 00:23:16;;;;;;;;;21.75;18.75;;;;;7.66;74.95;103095.44;4996711;28;46033;-76
2022/01/18 00:25:47;;;;;;;;;21.50;18.00;;;;;7.67;74.96;103094.53;4994834;28;47045;-78
2022/01/18 00:28:13;;;;;;;;;21.50;19.00;;;;;7.64;74.97;103081.56;5011149;28;47112;-78
2022/01/18 00:31:08;;;;;;;;;29.00;23.00;;;;;7.59;75.06;103068.59;5011867;28;45968;-78
2022/01/18 00:36:08;;;;;;;;;15.75;15.75;;;;;7.62;75.21;103085.94;5012769;28;46495;-77
2022/01/18 00:38:47;;;;;;;;;19.25;18.00;;;;;7.66;75.06;103061.53;5013348;28;46215;-78
2022/01/18 00:41:15;;;;;;;;;23.00;19.50;;;;;7.66;75.00;103083.28;5011269;28;45565;-78
2022/01/18 00:43:41;;;;;;;;;21.00;17.75;;;;;7.60;75.12;103075.56;5011725;28;45627;-78
2022/01/18 00:46:07;;;;;;;;;23.00;21.00;;;;;7.61;75.10;103065.97;5011270;28;48748;-77
2022/01/18 00:48:35;;;;;;;;;24.50;19.50;;;;;7.55;75.17;103051.31;5011242;28;47173;-77
2022/01/18 00:51:03;;;;;;;;;19.50;17.50;;;;;7.64;75.03;103073.72;5011325;28;45721;-77
2022/01/18 00:53:31;;;;;;;;;27.00;20.25;;;;;7.62;74.91;103078.97;5072132;28;46058;-77
2022/01/18 00:58:32;;;;;;;;;28.00;21.75;;;;;7.47;74.85;103061.88;5073386;28;46161;-77
2022/01/18 01:00:57;;;;;;;;;24.75;21.25;;;;;7.49;75.00;103060.09;5074674;28;45575;-78
2022/01/18 01:03:23;;;;;;;;;23.75;19.50;;;;;7.53;74.96;103066.97;5077222;28;45645;-77
2022/01/18 01:05:48;;;;;;;;;19.00;17.50;;;;;7.51;75.00;103076.56;5077048;28;45721;-76
2022/01/18 01:08:14;;;;;;;;;21.75;19.25;;;;;7.49;75.02;103072.28;5076908;28;46300;-77
2022/01/18 01:10:39;;;;;;;;;18.75;18.25;;;;;7.42;74.65;103061.09;5075356;28;45620;-77
2022/01/18 01:13:05;;;;;;;;;23.00;20.25;;;;;7.41;74.88;103067.19;5077083;28;45825;-78
2022/01/18 01:15:35;;;;;;;;;23.25;22.75;;;;;7.44;75.07;103066.28;5076291;28;47663;-78
2022/01/18 01:34:39;;;;;;;;;44.25;37.75;;;;;7.27;75.00;103071.81;4994383;28;45857;-78
2022/01/18 01:42:53;;;;;;;;;47.00;39.25;;;;;7.04;74.83;103053.09;4994142;28;45868;-77
2022/01/18 01:44:58;;;;;;;;;48.75;42.00;;;;;7.05;74.91;103066.13;4992221;28;45753;-77
2022/01/18 01:47:35;;;;;;;;;45.50;41.50;;;;;6.95;75.15;103074.97;4993863;28;48474;-78
2022/01/18 01:50:07;;;;;;;;;43.00;38.00;;;;;6.89;75.12;103072.47;4993978;28;46384;-76
2022/01/18 01:52:33;;;;;;;;;53.75;42.50;;;;;6.73;75.08;103044.94;4994503;28;45509;-77
2022/01/18 01:54:58;;;;;;;;;49.25;40.00;;;;;6.80;75.31;103075.22;4994264;28;45545;-77
2022/01/18 01:57:24;;;;;;;;;40.50;37.50;;;;;6.74;75.23;103070.97;4995288;28;46532;-77
2022/01/18 01:59:51;;;;;;;;;53.25;42.50;;;;;6.71;75.38;103073.59;4995133;28;47300;-77
2022/01/18 02:02:17;;;;;;;;;48.25;41.25;;;;;6.70;75.45;103071.88;4994955;28;45763;-76
2022/01/18 02:04:42;;;;;;;;;57.50;41.25;;;;;6.55;75.22;103053.03;4994865;28;45623;-77
2022/01/18 02:07:08;;;;;;;;;41.50;36.50;;;;;6.64;75.28;103079.78;4997714;28;45568;-78
2022/01/18 02:09:33;;;;;;;;;41.25;32.50;;;;;6.60;75.28;103083.31;5070327;28;45760;-76
2022/01/18 02:12:00;;;;;;;;;46.75;35.00;;;;;6.51;75.56;103069.59;5075922;28;45615;-77
2022/01/18 02:14:29;;;;;;;;;35.25;30.00;;;;;6.54;75.64;103077.34;5076488;28;45506;-76
2022/01/18 02:22:24;;;;;;;;;25.50;23.75;;;;;6.46;75.50;103082.66;5076501;28;45971;-78
2022/01/18 02:24:50;;;;;;;;;30.50;23.50;;;;;6.38;75.66;103073.22;5057485;28;45806;-76
2022/01/18 02:27:15;;;;;;;;;29.00;28.00;;;;;6.28;75.65;103062.94;5075535;28;45819;-78
2022/01/18 02:29:41;;;;;;;;;32.00;26.00;;;;;6.16;75.81;103047.50;5040703;28;48265;-78
2022/01/18 02:32:07;;;;;;;;;34.00;27.75;;;;;6.25;75.63;103063.00;5075195;28;45744;-77
2022/01/18 02:34:33;;;;;;;;;34.75;23.25;;;;;6.28;75.67;103085.50;5075951;28;45706;-77
2022/01/18 02:36:59;;;;;;;;;35.75;27.25;;;;;6.19;75.81;103075.25;5057153;28;46528;-77
2022/01/18 02:39:27;;;;;;;;;25.00;22.25;;;;;6.20;75.78;103077.84;5074670;28;46045;-78
2022/01/18 02:41:58;;;;;;;;;32.75;25.50;;;;;6.16;75.93;103073.53;5074826;28;45510;-78
2022/01/18 02:44:25;;;;;;;;;24.25;20.75;;;;;6.05;76.46;103057.19;5075428;28;45740;-77
2022/01/18 02:46:51;;;;;;;;;34.75;30.75;;;;;6.03;76.06;103071.97;5075125;28;46721;-77
2022/01/18 02:49:16;;;;;;;;;29.00;24.50;;;;;6.04;75.79;103065.91;5074976;28;46938;-76
2022/01/18 02:51:42;;;;;;;;;38.25;26.25;;;;;5.97;76.13;103061.63;5074888;28;45510;-78
2022/01/18 02:54:11;;;;;;;;;29.25;24.00;;;;;5.98;76.34;103071.19;5057207;28;45578;-77
2022/01/18 02:56:42;;;;;;;;;31.00;26.50;;;;;5.94;76.01;103061.66;5073738;28;46674;-77
2022/01/18 02:59:16;;;;;;;;;35.50;25.50;;;;;5.97;76.47;103064.25;5074941;28;46096;-77
2022/01/18 03:04:26;;;;;;;;;28.50;23.25;;;;;5.93;76.10;103059.97;5075077;28;45544;-77
2022/01/18 03:06:52;;;;;;;;;31.50;25.00;;;;;5.89;76.21;103040.91;5074212;28;45592;-77
2022/01/18 03:09:17;;;;;;;;;24.50;21.50;;;;;5.94;76.62;103056.47;5074630;28;46051;-76
2022/01/18 03:11:43;;;;;;;;;30.00;24.75;;;;;5.95;76.24;103054.72;5074863;28;45611;-77
2022/01/18 03:14:09;;;;;;;;;31.50;21.75;;;;;6.04;76.41;103042.47;5074782;28;45630;-77
2022/01/18 03:16:35;;;;;;;;;27.50;21.25;;;;;6.06;76.49;103045.91;5056930;28;46390;-78
2022/01/18 03:19:00;;;;;;;;;32.00;26.75;;;;;6.01;76.52;103045.09;5074419;28;46259;-76
2022/01/18 03:21:26;;;;;;;;;37.00;23.25;;;;;5.97;76.38;103022.63;5074770;28;45771;-78
2022/01/18 03:23:59;;;;;;;;;34.25;24.00;;;;;5.98;76.62;103023.47;5074111;28;45867;-78
2022/01/18 03:26:33;;;;;;;;;24.00;20.50;;;;;5.94;76.66;103037.41;5040512;28;47407;-77
2022/01/18 03:28:58;;;;;;;;;29.25;23.50;;;;;5.84;76.58;103021.88;5074676;28;46002;-77
2022/01/18 03:31:25;;;;;;;;;25.00;18.50;;;;;5.84;76.76;103029.66;5074853;28;45583;-77
2022/01/18 03:33:50;;;;;;;;;26.50;20.75;;;;;5.71;76.58;103016.84;5078167;28;45577;-77
2022/01/18 03:36:17;;;;;;;;;22.75;20.25;;;;;5.75;76.68;103029.78;5078085;28;45545;-76
2022/01/18 03:38:42;;;;;;;;;29.75;22.50;;;;;5.71;76.55;103022.91;5079894;28;47154;-77
2022/01/18 03:41:07;;;;;;;;;20.00;18.25;;;;;5.70;76.89;103041.13;5077840;28;46037;-78
2022/01/18 03:43:35;;;;;;;;;28.50;21.25;;;;;5.66;76.85;103018.66;5075353;28;45576;-78
2022/01/18 03:46:02;;;;;;;;;23.50;18.75;;;;;5.70;76.74;103028.13;5074262;28;46949;-77
2022/01/18 03:48:33;;;;;;;;;25.50;20.25;;;;;5.72;76.52;103034.19;5074531;28;46170;-79
2022/01/18 03:50:59;;;;;;;;;23.25;19.50;;;;;5.69;76.79;103024.66;5074541;28;45536;-78
2022/01/18 03:53:26;;;;;;;;;21.25;16.25;;;;;5.75;76.51;103026.34;5074917;28;45710;-77
2022/01/18 03:59:12;;;;;;;;;25.00;20.00;;;;;5.72;76.79;103032.41;5074089;28;46216;-78
2022/01/18 04:01:38;;;;;;;;;24.00;21.00;;;;;5.72;76.74;103029.81;5074444;28;46080;-77
2022/01/18 04:04:03;;;;;;;;;16.75;15.25;;;;;5.71;76.64;103028.13;5074410;28;45596;-78
2022/01/18 04:06:29;;;;;;;;;24.75;20.00;;;;;5.71;76.50;103032.47;5074462;28;46579;-77
2022/01/18 04:08:54;;;;;;;;;23.25;19.75;;;;;5.71;76.72;103020.31;5074088;28;46104;-77
2022/01/18 04:11:20;;;;;;;;;21.00;19.00;;;;;5.72;76.90;103022.00;5074306;28;45938;-79
2022/01/18 04:13:45;;;;;;;;;28.00;21.00;;;;;5.71;76.60;103024.66;5074628;28;45612;-78
2022/01/18 04:16:10;;;;;;;;;32.00;21.25;;;;;5.66;76.61;103016.06;5056221;28;46453;-78
2022/01/18 04:29:03;;;;;;;;;29.25;23.25;;;;;5.58;77.38;103021.31;5073915;28;46028;-78
2022/01/18 04:31:29;;;;;;;;;25.75;19.00;;;;;5.55;76.86;103013.56;5074262;28;46016;-77
2022/01/18 04:33:55;;;;;;;;;26.25;21.25;;;;;5.56;76.82;103023.06;5074153;28;45531;-77
2022/01/18 04:36:21;;;;;;;;;27.00;21.50;;;;;5.53;77.27;103028.31;5077121;28;45597;-78
2022/01/18 04:38:46;;;;;;;;;22.75;21.75;;;;;5.53;77.37;103035.25;5077536;28;46674;-78
2022/01/18 04:50:41;;;;;;;;;21.75;18.50;;;;;5.41;77.07;103015.44;5077569;28;45752;-78
2022/01/18 04:53:07;;;;;;;;;22.75;18.75;;;;;5.43;77.51;103014.56;5077807;28;45643;-77
2022/01/18 04:58:54;;;;;;;;;37.00;25.75;;;;;5.39;77.77;103006.81;5077329;28;46040;-78
2022/01/18 05:01:20;;;;;;;;;30.25;24.50;;;;;5.35;77.74;103010.31;5078258;28;46132;-78
2022/01/18 05:03:45;;;;;;;;;26.75;25.00;;;;;5.38;77.43;103011.16;5083032;28;45644;-78
2022/01/18 05:06:14;;;;;;;;;29.50;23.75;;;;;5.35;77.58;103013.78;5065352;28;45615;-77
2022/01/18 05:08:40;;;;;;;;;34.75;25.00;;;;;5.32;77.39;103003.44;5082815;28;45639;-77
2022/01/18 05:14:33;;;;;;;;;32.25;29.50;;;;;5.34;77.56;103021.63;5083353;28;45609;-77
2022/01/18 05:31:02;;;;;;;;;26.75;24.75;;;;;5.34;78.21;103013.81;5099520;28;45267;-78
2022/01/18 05:33:28;;;;;;;;;41.25;26.50;;;;;5.26;77.69;102994.84;5080740;28;47384;-77
2022/01/18 05:35:54;;;;;;;;;25.00;22.00;;;;;5.32;77.71;103010.34;5093411;28;45637;-77
2022/01/18 05:38:19;;;;;;;;;31.00;23.50;;;;;5.28;77.98;103003.47;5084162;28;45444;-78
2022/01/18 05:40:45;;;;;;;;;24.00;16.00;;;;;5.30;77.77;102999.09;5081913;28;45443;-78
2022/01/18 05:43:10;;;;;;;;;26.25;22.25;;;;;5.22;77.99;102991.41;5080164;28;46061;-78
2022/01/18 05:45:36;;;;;;;;;31.50;23.50;;;;;5.31;78.08;103003.44;5083431;28;45521;-77
2022/01/18 05:48:01;;;;;;;;;31.75;26.75;;;;;5.29;78.40;102989.63;5083248;28;45766;-78
2022/01/18 05:50:27;;;;;;;;;26.50;20.25;;;;;5.32;78.03;102990.44;5080029;28;45755;-77
2022/01/18 05:52:52;;;;;;;;;28.00;22.00;;;;;5.30;78.21;102983.50;5078718;28;46076;-77
2022/01/18 05:55:18;;;;;;;;;32.75;21.50;;;;;5.28;78.10;102977.50;5076988;28;45752;-77
2022/01/18 05:57:43;;;;;;;;;30.50;22.75;;;;;5.31;78.16;103004.31;5077114;28;45854;-78
2022/01/18 06:00:20;;;;;;;;;30.50;19.00;;;;;5.30;78.12;103001.72;5058298;28;46342;-77
2022/01/18 06:03:01;;;;;;;;;26.00;22.50;;;;;5.26;78.19;103002.63;5076519;28;46365;-76
2022/01/18 06:08:11;;;;;;;;;25.75;21.75;;;;;5.21;78.09;102989.69;5076171;28;45628;-78
2022/01/18 06:10:42;;;;;;;;;32.50;21.75;;;;;5.28;78.08;102999.16;5076023;28;46449;-78
2022/01/18 06:13:08;;;;;;;;;24.00;20.75;;;;;5.23;78.23;102984.47;5058851;28;46071;-78
2022/01/18 06:15:34;;;;;;;;;28.50;19.75;;;;;5.29;78.27;103003.44;5076263;28;45636;-78
2022/01/18 06:18:00;;;;;;;;;22.50;18.75;;;;;5.25;78.31;102996.56;5058427;28;45537;-76
2022/01/18 06:20:25;;;;;;;;;25.00;19.50;;;;;5.26;78.17;102998.28;5075803;28;46314;-77
2022/01/18 06:22:51;;;;;;;;;19.50;13.50;;;;;5.25;78.42;103008.69;5076077;28;47289;-78
2022/01/18 06:25:18;;;;;;;;;23.00;15.75;;;;;5.08;78.13;103001.06;5076487;28;45708;-78
2022/01/18 06:27:44;;;;;;;;;18.75;11.75;;;;;5.21;78.65;103020.88;5075998;28;45585;-78
2022/01/18 06:30:11;;;;;;;;;28.75;18.25;;;;;5.20;78.29;103020.88;5076256;28;46718;-78
2022/01/18 06:32:43;;;;;;;;;23.75;21.00;;;;;5.17;78.18;103021.78;5079840;28;46074;-78
2022/01/18 06:35:11;;;;;;;;;25.00;19.00;;;;;5.16;78.65;103024.38;5062162;28;45585;-78
2022/01/18 06:37:38;;;;;;;;;26.75;20.00;;;;;5.10;78.67;103020.09;5079846;28;45726;-79
2022/01/18 06:40:05;;;;;;;;;22.75;18.75;;;;;5.02;78.78;103004.59;5075544;28;45624;-77
2022/01/18 06:42:31;;;;;;;;;20.75;15.50;;;;;5.06;78.48;103010.63;5074671;28;46054;-75
2022/01/18 06:44:57;;;;;;;;;29.75;23.50;;;;;4.94;78.80;103003.81;5075811;28;45506;-78
2022/01/18 06:47:24;;;;;;;;;15.25;13.50;;;;;4.88;78.50;103000.41;5075532;28;45702;-77
2022/01/18 06:49:49;;;;;;;;;20.25;17.25;;;;;4.82;79.02;102998.72;5075390;28;46479;-78
2022/01/18 06:52:18;;;;;;;;;22.00;19.75;;;;;4.99;78.80;103033.19;5075324;28;47240;-77
2022/01/18 06:54:44;;;;;;;;;19.00;16.00;;;;;5.00;79.03;103036.66;5074647;28;45565;-78
2022/01/18 06:57:10;;;;;;;;;25.00;19.00;;;;;4.94;78.43;103026.31;5075222;28;45917;-79
2022/01/18 06:59:36;;;;;;;;;20.00;17.25;;;;;5.03;78.72;103034.03;5056277;28;47626;-78
2022/01/18 07:02:02;;;;;;;;;26.50;20.75;;;;;4.97;79.00;103018.50;5074810;28;46381;-78
2022/01/18 07:04:28;;;;;;;;;22.75;18.75;;;;;5.04;78.65;103031.41;5057183;28;45902;-76
2022/01/18 07:06:53;;;;;;;;;24.00;22.25;;;;;4.90;78.72;103012.50;5056625;28;45606;-78
2022/01/18 07:09:25;;;;;;;;;22.50;18.50;;;;;5.04;78.85;103028.81;5074728;28;45621;-78
2022/01/18 07:11:52;;;;;;;;;24.75;20.25;;;;;5.03;78.98;103034.88;5074852;28;46108;-78
2022/01/18 07:14:18;;;;;;;;;28.00;18.25;;;;;5.00;79.13;103018.47;5075252;28;45745;-77
2022/01/18 07:16:43;;;;;;;;;24.25;19.25;;;;;4.92;78.87;103007.28;5075227;28;45707;-78
2022/01/18 07:19:09;;;;;;;;;28.75;22.75;;;;;5.02;78.75;103022.75;5074775;28;45565;-79
2022/01/18 07:21:34;;;;;;;;;25.00;20.75;;;;;4.75;79.26;102965.88;5075424;28;46151;-76
2022/01/18 07:24:05;;;;;;;;;25.25;18.75;;;;;4.94;78.94;103005.53;5075892;28;45848;-78
2022/01/18 07:26:32;;;;;;;;;21.50;16.50;;;;;5.06;79.03;103032.28;5077599;28;45553;-78
2022/01/18 07:28:57;;;;;;;;;25.25;19.75;;;;;5.06;78.63;103019.28;5078381;28;46584;-78
2022/01/18 07:31:23;;;;;;;;;21.25;18.50;;;;;5.08;78.84;103020.13;5077401;28;45719;-78
2022/01/18 07:33:49;;;;;;;;;28.75;20.75;;;;;5.06;78.81;103008.03;5077595;28;45684;-77
2022/01/18 07:36:14;;;;;;;;;22.00;18.50;;;;;5.06;78.78;103002.84;5076561;28;45513;-77
2022/01/18 07:38:40;;;;;;;;;22.75;18.25;;;;;4.94;79.07;102969.19;5075756;28;46460;-77
2022/01/18 07:41:05;;;;;;;;;25.00;19.00;;;;;5.12;78.74;103001.91;5074869;28;46314;-77
2022/01/18 07:43:31;;;;;;;;;20.25;17.50;;;;;5.12;78.69;102996.72;5075068;28;45569;-77
2022/01/18 07:45:57;;;;;;;;;24.50;19.50;;;;;5.16;79.14;102998.41;5075126;28;45495;-76
2022/01/18 07:48:23;;;;;;;;;20.25;17.25;;;;;5.16;79.12;102999.28;5074750;28;46544;-78
2022/01/18 07:50:53;;;;;;;;;27.75;18.50;;;;;5.15;79.10;102997.53;5056334;28;48213;-76
2022/01/18 07:53:19;;;;;;;;;22.25;17.25;;;;;5.04;79.36;102984.66;5074738;28;45538;-79
2022/01/18 07:55:47;;;;;;;;;25.25;19.25;;;;;5.00;79.25;102967.41;5074341;28;45538;-77
2022/01/18 07:58:21;;;;;;;;;20.50;19.25;;;;;5.22;78.91;103004.41;5074372;28;46324;-77
2022/01/18 08:00:47;;;;;;;;;24.00;18.50;;;;;5.06;79.02;102967.34;5075854;28;46027;-78
2022/01/18 08:03:13;;;;;;;;;24.50;20.00;;;;;4.82;78.81;102933.81;5076130;28;45600;-77
2022/01/18 08:05:40;;;;;;;;;27.25;19.50;;;;;5.19;78.94;102986.22;5076573;28;45501;-77
2022/01/18 08:08:06;;;;;;;;;30.50;25.25;;;;;5.23;78.99;102974.09;5078631;28;45502;-78
2022/01/18 08:10:32;;;;;;;;;28.75;22.75;;;;;5.36;79.08;102988.66;5080566;28;45999;-76
2022/01/18 08:16:44;;;;;;;;;21.75;20.50;;;;;5.42;78.93;102991.19;5077850;28;45562;-78
2022/01/18 08:19:08;;;;;;;;;35.25;22.50;;;;;5.44;79.08;102984.25;5077586;28;45539;-77
2022/01/18 08:21:34;;;;;;;;;25.00;20.75;;;;;5.48;78.78;102986.78;5077563;28;45569;-77
2022/01/18 08:23:59;;;;;;;;;24.00;20.50;;;;;5.51;79.02;102979.84;5077992;28;45656;-77
2022/01/18 08:26:24;;;;;;;;;28.00;22.50;;;;;5.50;78.67;102968.56;5078169;28;45817;-78
2022/01/18 08:28:50;;;;;;;;;31.00;23.50;;;;;5.56;79.13;102980.66;5077807;28;45772;-78
2022/01/18 08:31:15;;;;;;;;;28.50;23.25;;;;;5.46;78.73;102962.53;5077737;28;46557;-77
2022/01/18 08:33:41;;;;;;;;;23.50;21.50;;;;;5.42;79.05;102947.00;5077770;28;45506;-78
2022/01/18 08:36:07;;;;;;;;;26.75;24.75;;;;;5.51;78.68;102966.84;5077773;28;45682;-78
2022/01/18 08:38:34;;;;;;;;;21.75;18.00;;;;;5.63;78.65;102982.25;5077607;28;45584;-77
2022/01/18 08:41:01;;;;;;;;;26.25;23.50;;;;;5.65;78.83;102986.59;5077635;28;46136;-78
2022/01/18 08:43:30;;;;;;;;;23.25;21.25;;;;;5.70;78.89;102987.38;5077683;28;45739;-78
2022/01/18 08:45:56;;;;;;;;;26.25;19.25;;;;;5.73;78.93;102986.47;5078029;28;45548;-77
2022/01/18 08:48:22;;;;;;;;;25.25;21.75;;;;;5.76;78.99;102981.25;5075976;28;47736;-78
2022/01/18 08:50:47;;;;;;;;;23.00;19.25;;;;;5.77;78.62;102978.63;5077834;28;46371;-77
2022/01/18 08:53:13;;;;;;;;;27.00;20.25;;;;;5.83;79.02;102988.94;5077630;28;45684;-77
2022/01/18 08:55:38;;;;;;;;;34.00;26.25;;;;;5.78;78.28;102980.31;5077342;28;45563;-76
2022/01/18 09:01:25;;;;;;;;;26.25;22.25;;;;;6.02;78.70;102983.53;5076754;28;46175;-78
2022/01/18 09:03:50;;;;;;;;;24.25;20.50;;;;;6.01;78.56;102974.00;5077241;28;45619;-78
2022/01/18 09:06:18;;;;;;;;;24.00;20.75;;;;;6.14;78.45;102975.56;5077039;28;45522;-77
2022/01/18 09:08:45;;;;;;;;;27.25;20.50;;;;;6.14;78.63;102968.59;5076942;28;45632;-79
2022/01/18 09:11:11;;;;;;;;;19.75;16.00;;;;;6.24;78.63;102983.19;5076700;28;45971;-79
2022/01/18 09:13:38;;;;;;;;;24.75;20.00;;;;;6.30;78.52;102977.91;5077232;28;45839;-77
2022/01/18 09:16:06;;;;;;;;;20.75;18.25;;;;;6.33;78.30;102976.97;5077451;28;45549;-78
2022/01/18 09:18:32;;;;;;;;;26.00;21.50;;;;;6.38;78.46;102975.16;5076979;28;45609;-77
2022/01/18 09:20:59;;;;;;;;;27.50;21.00;;;;;6.48;78.40;102984.53;5075699;28;46207;-79
2022/01/18 09:23:25;;;;;;;;;21.50;20.00;;;;;6.50;78.53;102971.50;5076942;28;45584;-78
2022/01/18 09:25:52;;;;;;;;;29.75;23.25;;;;;6.59;78.40;102974.81;5076841;28;45856;-79
2022/01/18 09:31:41;;;;;;;;;24.00;21.00;;;;;6.68;78.41;102971.22;5077112;28;45855;-78
2022/01/18 09:34:06;;;;;;;;;23.25;21.75;;;;;6.69;78.54;102972.94;5076686;28;45977;-75
2022/01/18 09:36:31;;;;;;;;;29.25;24.25;;;;;6.82;78.63;102976.19;5076445;28;45747;-77
2022/01/18 09:38:58;;;;;;;;;25.00;24.50;;;;;6.86;78.65;102976.09;5076227;28;45662;-75
2022/01/18 09:41:28;;;;;;;;;33.00;25.50;;;;;6.89;78.53;102972.59;5075803;28;46493;-78
2022/01/18 09:43:55;;;;;;;;;27.50;22.50;;;;;6.90;78.54;102969.09;5076390;28;45891;-78
2022/01/18 09:46:24;;;;;;;;;30.50;27.50;;;;;6.92;78.43;102965.56;5058820;28;45575;-78
2022/01/18 09:48:56;;;;;;;;;34.00;26.25;;;;;6.99;78.86;102963.72;5076265;28;46740;-79
2022/01/18 09:51:23;;;;;;;;;30.50;25.50;;;;;7.04;78.46;102970.56;5076557;28;47288;-78
2022/01/18 09:53:49;;;;;;;;;30.00;26.50;;;;;7.12;78.55;102980.84;5058123;28;45864;-78
2022/01/18 09:56:15;;;;;;;;;25.50;22.50;;;;;7.16;78.46;102979.91;5076392;28;46066;-77
2022/01/18 09:58:44;;;;;;;;;33.00;27.00;;;;;7.08;78.29;102959.19;5076456;28;45573;-79
2022/01/18 10:01:10;;;;;;;;;33.75;25.50;;;;;7.24;78.43;102982.34;5077428;28;46283;-78
2022/01/18 10:03:39;;;;;;;;;29.00;24.25;;;;;7.31;78.39;102978.75;5077361;28;45792;-78
2022/01/18 10:06:06;;;;;;;;;31.75;27.00;;;;;7.35;78.24;102976.03;5077749;28;45700;-79
2022/01/18 10:08:32;;;;;;;;;25.25;23.00;;;;;7.35;78.00;102962.16;5077301;28;47742;-80
2022/01/18 10:11:02;;;;;;;;;26.00;20.75;;;;;7.44;78.25;102978.50;5078422;28;46323;-79
2022/01/18 10:16:49;;;;;;;;;30.50;26.50;;;;;7.44;78.25;102960.25;5075234;28;45551;-78
2022/01/18 10:19:31;;;;;;;;;28.25;25.75;;;;;7.57;78.22;102976.47;5075775;28;46921;-79
2022/01/18 10:22:12;;;;;;;;;30.25;24.50;;;;;7.59;78.14;102956.44;5075923;28;47279;-80
2022/01/18 10:24:39;;;;;;;;;22.00;19.25;;;;;7.69;78.19;102963.19;5057179;28;45944;-76
2022/01/18 10:27:05;;;;;;;;;31.00;23.50;;;;;7.74;78.16;102958.72;5075438;28;45530;-78
2022/01/18 10:29:38;;;;;;;;;21.50;20.50;;;;;7.80;78.17;102962.94;5075439;28;45648;-79
2022/01/18 10:37:09;;;;;;;;;20.00;17.75;;;;;7.96;77.92;102941.69;5075352;28;45660;-80
2022/01/18 10:39:43;;;;;;;;;28.00;24.25;;;;;8.01;77.97;102931.16;5074932;28;46495;-79
2022/01/18 10:42:19;;;;;;;;;28.00;25.50;;;;;8.05;78.05;102924.97;5057657;28;46035;-80
2022/01/18 10:44:47;;;;;;;;;24.75;20.00;;;;;8.10;78.01;102927.50;5064233;28;45525;-78
2022/01/18 10:47:13;;;;;;;;;19.50;18.50;;;;;8.14;77.88;102919.53;5054794;28;45504;-78
2022/01/18 10:49:44;;;;;;;;;29.50;25.25;;;;;8.12;77.95;102904.78;5054479;28;46452;-79
2022/01/18 10:52:14;;;;;;;;;28.75;24.25;;;;;8.23;77.61;102916.69;5054928;28;47015;-78
2022/01/18 10:54:44;;;;;;;;;23.50;21.75;;;;;8.23;77.90;102900.16;5054979;28;45650;-78
2022/01/18 10:57:12;;;;;;;;;31.00;23.75;;;;;8.29;77.76;102892.19;5055115;28;45546;-81
2022/01/18 10:59:38;;;;;;;;;25.00;20.00;;;;;8.39;77.76;102901.53;5054878;28;46538;-79
2022/01/18 11:02:13;;;;;;;;;25.25;20.25;;;;;8.27;77.73;102873.94;5055385;28;46087;-78
2022/01/18 11:04:45;;;;;;;;;30.75;22.25;;;;;8.49;77.62;102883.88;5055281;28;45749;-80
2022/01/18 11:07:12;;;;;;;;;24.50;21.25;;;;;8.53;77.47;102891.59;5054237;28;45734;-76
2022/01/18 11:09:38;;;;;;;;;23.50;20.50;;;;;8.59;77.45;102885.34;5053837;28;47455;-79
2022/01/18 11:12:05;;;;;;;;;24.00;22.25;;;;;8.62;77.63;102880.91;5053937;28;46427;-77
2022/01/18 11:14:32;;;;;;;;;36.25;24.75;;;;;8.67;77.31;102876.44;5054317;28;46182;-77
2022/01/18 11:16:58;;;;;;;;;25.75;22.50;;;;;8.74;77.52;102871.91;5054815;28;45499;-77
2022/01/18 11:21:53;;;;;;;;;16.25;13.75;;;;;8.82;77.08;102872.53;5053873;28;46324;-75
2022/01/18 11:24:19;;;;;;;;;24.25;21.25;;;;;8.87;76.94;102854.09;5054173;28;45755;-75
2022/01/18 11:26:47;;;;;;;;;18.25;15.00;;;;;8.90;76.94;102851.44;5054335;28;45610;-75
2022/01/18 11:32:35;;;;;;;;;24.00;18.50;;;;;9.00;76.70;102848.50;5053973;28;46262;-76
2022/01/18 11:35:38;;;;;;;;;13.00;10.00;;;;;9.04;76.40;102830.97;5054401;28;45767;-78
2022/01/18 11:38:15;;;;;;;;;15.50;14.25;;;;;9.09;76.20;102814.25;5054452;28;45538;-77
2022/01/18 11:40:44;;;;;;;;;10.50;9.50;;;;;9.12;76.14;102821.16;5054157;28;46373;-76
2022/01/18 11:43:10;;;;;;;;;20.00;17.75;;;;;9.12;76.09;102819.38;5052312;28;48181;-77
2022/01/18 11:45:39;;;;;;;;;32.00;29.25;;;;;9.20;75.89;102816.53;5070003;28;45720;-74
2022/01/18 11:48:17;;;;;;;;;12.25;10.75;;;;;9.24;75.76;102819.00;5055685;28;45576;-76
2022/01/18 11:50:50;;;;;;;;;14.00;12.75;;;;;9.28;75.41;102811.94;5074437;28;46809;-78
2022/01/18 11:56:42;;;;;;;;;13.00;10.75;;;;;9.28;74.95;102789.22;5012056;28;45729;-78
2022/01/18 11:59:22;;;;;;;;;12.75;10.00;;;;;9.41;75.28;102800.19;5012093;28;45808;-78
2022/01/18 12:01:55;;;;;;;;;13.75;11.00;;;;;9.45;75.19;102795.69;5011676;28;46770;-79
2022/01/18 12:04:41;;;;;;;;;13.25;11.00;;;;;9.48;74.79;102793.88;5011842;28;45501;-75
2022/01/18 12:07:08;;;;;;;;;13.00;8.00;;;;;9.51;74.78;102787.66;5011958;28;45874;-79
2022/01/18 12:09:38;;;;;;;;;11.50;10.00;;;;;9.42;74.82;102767.03;5011669;28;45813;-77
2022/01/18 12:12:09;;;;;;;;;8.75;8.50;;;;;9.59;74.86;102785.69;5011545;28;46369;-81
2022/01/18 12:14:34;;;;;;;;;9.00;7.75;;;;;9.61;74.82;102779.47;5011558;28;46683;-76
2022/01/18 12:17:39;;;;;;;;;9.75;8.00;;;;;9.67;74.81;102776.66;5011727;28;45776;-77
2022/01/18 12:20:05;;;;;;;;;8.75;8.25;;;;;9.71;74.03;102777.44;5012457;28;45703;-78
2022/01/18 12:23:02;;;;;;;;;8.50;8.00;;;;;9.72;73.70;102768.66;5012755;28;45702;-78
2022/01/18 12:25:30;;;;;;;;;13.25;9.25;;;;;9.80;73.94;102763.19;5016680;28;46482;-78
2022/01/18 12:34:32;;;;;;;;;11.00;8.50;;;;;9.92;73.42;102744.44;5065182;28;46445;-78
2022/01/18 12:37:19;;;;;;;;;8.00;8.00;;;;;9.95;73.36;102732.09;5081429;28;45691;-78
2022/01/18 12:39:55;;;;;;;;;7.00;6.00;;;;;9.99;73.10;102731.06;5072759;28;45508;-80
2022/01/18 12:49:07;;;;;;;;;8.25;7.50;;;;;9.97;72.39;102698.88;5087100;28;45647;-76
2022/01/18 12:51:33;;;;;;;;;14.25;12.00;;;;;10.09;72.40;102726.41;5086678;28;45783;-80
2022/01/18 12:53:58;;;;;;;;;12.50;10.75;;;;;10.15;72.51;102720.09;5085815;28;45616;-79
2022/01/18 12:56:25;;;;;;;;;14.50;12.00;;;;;10.17;72.39;102721.75;5084205;28;46302;-81
2022/01/18 13:02:22;;;;;;;;;12.50;10.00;;;;;10.24;72.10;102706.69;5078882;28;45845;-81
2022/01/18 13:05:07;;;;;;;;;9.00;8.00;;;;;10.27;72.13;102703.94;5078486;28;45525;-80
2022/01/18 13:07:47;;;;;;;;;12.75;10.25;;;;;10.31;71.98;102693.28;5077853;28;45610;-79
2022/01/18 13:10:12;;;;;;;;;13.25;12.00;;;;;10.32;72.14;102705.50;5077720;28;45654;-78
2022/01/18 13:12:43;;;;;;;;;16.75;12.00;;;;;10.34;71.77;102697.56;5077882;28;45636;-81
2022/01/18 13:24:50;;;;;;;;;13.75;12.75;;;;;10.44;71.82;102670.13;4975539;28;45510;-78
2022/01/18 13:27:28;;;;;;;;;14.75;12.50;;;;;10.45;71.44;102653.50;4975069;28;45616;-81
2022/01/18 13:30:05;;;;;;;;;12.50;9.50;;;;;10.52;71.26;102655.84;4975258;28;46801;-83
2022/01/18 13:32:33;;;;;;;;;14.00;10.50;;;;;10.55;71.44;102647.00;4974901;28;46012;-80
2022/01/18 13:35:01;;;;;;;;;12.75;10.25;;;;;10.56;71.27;102643.47;4974921;28;45852;-79
2022/01/18 13:37:30;;;;;;;;;12.25;10.25;;;;;10.57;71.19;102632.06;4974422;28;45782;-81
2022/01/18 13:39:59;;;;;;;;;15.50;11.75;;;;;10.43;71.02;102609.00;4974816;28;45734;-80
2022/01/18 13:42:38;;;;;;;;;10.25;9.50;;;;;10.56;70.90;102632.13;4974590;28;46257;-81
2022/01/18 13:45:06;;;;;;;;;3.00;2.25;;;;;10.59;70.98;102638.09;4974435;28;45606;-80
2022/01/18 13:48:05;;;;;;;;;9.00;8.00;;;;;10.60;70.71;102634.56;4974280;28;45629;-79
2022/01/18 13:50:46;;;;;;;;;12.50;8.75;;;;;10.61;70.55;102632.78;4916290;28;45572;-79